Twin Lakes, MN

11:13 PM CST on January 25, 2015 (GMT -0600)
City Beach | Change Station
CLOSE
Current Station
Personal Weather Station
Location: Albert Lea, MN
Elevation: 1250 ft
Nearby Weather Stations

Elev 1250 ft 43.66 °N, 93.37 °W | Updated 25 seconds ago

Mostly Cloudy
Mostly Cloudy
22.1 °F
Feels Like 22 °F
N
0.0
Wind Variable Wind from SW
Gusts 0.0 mph

Today
High -- | Low -- °F
--% Chance of Precip.
Yesterday
High -- | Low -- °F
Precip. -- in
7:37 AM 5:15 PM
Waxing Crescent, 39% visible
Pressure 30.01 in
Visibility 10.0 miles
Clouds Mostly Cloudy 2200 ft
Windchill 22 °F
Dew Point 16 °F
Humidity 76%
Rainfall 0.00 in
Snow Depth Not available.
UV 0.0 out of 12
Pollen .10 out of 12
Air Quality Not available.
Flu Activity Not available.
METAR KAEL 260454Z AUTO 00000KT 10SM BKN022 M06/M07 A3001 RMK AO2

More Conditions Fewer Conditions

Pressure 30.01 in
Visibility 10.0 miles
Clouds Mostly Cloudy 2200 ft
Windchill 22 °F
Dew Point 16 °F
Humidity 76%
Rainfall 0.00 in
Snow Depth Not available.
UV 0.0 out of 12
Pollen .10 out of 12
Air Quality Not available.
Flu Activity Not available.
METAR KAEL 260454Z AUTO 00000KT 10SM BKN022 M06/M07 A3001 RMK AO2

More Conditions Fewer Conditions

10-Day Weather Forecast

Almanac

Astronomy

Jan. 25, 2015 Rise Set
Actual Time
Civil Twilight
Nautical Twilight
Astronomical Twilight
Moon
Length of Visible Light
Length of Day
Tomorrow will be .
, % of the Moon is Illuminated

Today's Extremes

State Highs State Lows

Community

WunderPhotos

Upload Photos

1,790,151 photos uploaded!

WunderBlogs® & News

Nearby

Air Quality

  Air Quality AQ Index Pollutant
Not available.

Snow Depth

Station Depth Elevation

Earthquake Activity

City Distance Mag. Time & Date
Minimum magnitude displayed is 2.5.

Coastal Water Temperatures

Place Temperature

Nearby Weather Stations